Terminal Aerodrome Forecast
Issued by NWS

Home | Current Version | Previous Version | Text Only | Print | Product List | Glossary On
Versions: 1 2 3 4 5 6 7 8 9 10 11 12 13 14 15 16 17 18
593
FTUS41 KPBZ 281724
TAFBVI
TAF
KBVI 281724Z 2818/0118 15010G18KT P6SM OVC070
     FM282200 18008KT P6SM OVC025
     FM010100 17007KT P6SM OVC008 WS020/25040KT
     FM010800 21012G22KT 5SM -SHRA VCTS OVC010CB
     FM011500 21015G24KT P6SM VCTS OVC020CB=

USA.gov is the U.S. government's official web portal to all federal, state and local government web resources and services.